Richland, Washington
Current Conditions -  °F | °C
As of 11:53 PM on Sunday 21 Dec 2014 (Local Time) from KPSC Reporting Station
Broken Clouds Broken Clouds  
Wind Chill: 46°   Ceiling: 10000
Heat Index: 49°   Visibility: 10mi
Dew Point: 43°   Wind: 7mph
Humidity: 80%   Direction: 250°WSW
Pressure: 30.08"   Gusts: NA
Location:  46.27°N, 119.27°W
Report Text: KPSC 220753Z AUTO 25006KT 10SM BKN100 09/06 A3008 RMK AO2 SLP184 T00940061 401500094
Loading
Personal Weather Stations






























Interactive Weather Map New forecast layout! Learn more

10-Day Weather Forecast

Advertisements
Track Severe Weather on mobile